Saint Clair, Michigan
Current Conditions -  °F | °C
As of 8:17 PM on Sunday 23 Nov 2014 (Local Time) from KPHN Reporting Station
Scattered Clouds Scattered Clouds  
Wind Chill: 52°   Ceiling: Unl
Heat Index: 52°   Visibility: 10mi
Dew Point: 45°   Wind: 12mph
Humidity: 76%   Direction: 130°SE
Pressure: 29.56"   Gusts: 16mph
Location:  42.82°N, 82.49°W
Report Text: KPHN 240117Z AUTO 13010G14KT 10SM SCT090 SCT110 11/07 A2956 RMK AO2
Loading
Personal Weather Stations






























Interactive Weather Map New forecast layout! Learn more

10-Day Weather Forecast

Advertisements
Track Severe Weather on mobile